sensor_id;sensor_type;location;lat;lon;timestamp;P1;durP1;ratioP1;P2;durP2;ratioP2
48122;SDS011;33907;47.426;18.906;2023-09-08T00:02:26;9.57;;;5.47;;
48122;SDS011;33907;47.426;18.906;2023-09-08T00:04:54;10.60;;;5.87;;
48122;SDS011;33907;47.426;18.906;2023-09-08T00:07:22;9.07;;;4.87;;
48122;SDS011;33907;47.426;18.906;2023-09-08T00:09:50;9.25;;;5.45;;
48122;SDS011;33907;47.426;18.906;2023-09-08T00:12:18;8.98;;;5.45;;
48122;SDS011;33907;47.426;18.906;2023-09-08T00:14:45;8.93;;;5.75;;
48122;SDS011;33907;47.426;18.906;2023-09-08T00:17:13;7.97;;;5.32;;
48122;SDS011;33907;47.426;18.906;2023-09-08T00:19:40;8.75;;;5.95;;
48122;SDS011;33907;47.426;18.906;2023-09-08T00:22:08;9.30;;;5.72;;
48122;SDS011;33907;47.426;18.906;2023-09-08T00:24:36;9.15;;;5.80;;
48122;SDS011;33907;47.426;18.906;2023-09-08T00:27:04;8.40;;;5.15;;
48122;SDS011;33907;47.426;18.906;2023-09-08T00:29:32;9.63;;;5.70;;
48122;SDS011;33907;47.426;18.906;2023-09-08T00:32:01;9.27;;;5.65;;
48122;SDS011;33907;47.426;18.906;2023-09-08T00:34:28;10.30;;;5.28;;
48122;SDS011;33907;47.426;18.906;2023-09-08T00:36:56;10.43;;;5.43;;
48122;SDS011;33907;47.426;18.906;2023-09-08T00:39:23;9.25;;;5.05;;
48122;SDS011;33907;47.426;18.906;2023-09-08T00:41:51;9.45;;;5.70;;
48122;SDS011;33907;47.426;18.906;2023-09-08T00:44:19;8.25;;;5.32;;
48122;SDS011;33907;47.426;18.906;2023-09-08T00:46:46;8.13;;;5.47;;
48122;SDS011;33907;47.426;18.906;2023-09-08T00:49:14;10.73;;;4.90;;
48122;SDS011;33907;47.426;18.906;2023-09-08T00:51:42;10.32;;;5.50;;
48122;SDS011;33907;47.426;18.906;2023-09-08T00:54:09;9.93;;;5.85;;
48122;SDS011;33907;47.426;18.906;2023-09-08T00:56:37;9.30;;;5.10;;
48122;SDS011;33907;47.426;18.906;2023-09-08T00:59:06;9.00;;;5.45;;
48122;SDS011;33907;47.426;18.906;2023-09-08T01:01:34;8.65;;;5.30;;
48122;SDS011;33907;47.426;18.906;2023-09-08T01:04:02;9.35;;;5.22;;
48122;SDS011;33907;47.426;18.906;2023-09-08T01:06:30;9.30;;;6.15;;
48122;SDS011;33907;47.426;18.906;2023-09-08T01:08:59;8.10;;;4.95;;
48122;SDS011;33907;47.426;18.906;2023-09-08T01:11:30;9.80;;;5.53;;
48122;SDS011;33907;47.426;18.906;2023-09-08T01:13:58;7.62;;;5.32;;
48122;SDS011;33907;47.426;18.906;2023-09-08T01:16:25;8.35;;;5.40;;
48122;SDS011;33907;47.426;18.906;2023-09-08T01:18:54;10.57;;;5.87;;
48122;SDS011;33907;47.426;18.906;2023-09-08T01:26:52;7.93;;;5.47;;
48122;SDS011;33907;47.426;18.906;2023-09-08T01:29:20;7.70;;;4.93;;
48122;SDS011;33907;47.426;18.906;2023-09-08T01:31:50;10.75;;;5.53;;
48122;SDS011;33907;47.426;18.906;2023-09-08T01:34:18;8.98;;;5.55;;
48122;SDS011;33907;47.426;18.906;2023-09-08T01:36:46;9.02;;;5.65;;
48122;SDS011;33907;47.426;18.906;2023-09-08T01:39:13;7.50;;;4.82;;
48122;SDS011;33907;47.426;18.906;2023-09-08T01:41:41;8.27;;;5.72;;
48122;SDS011;33907;47.426;18.906;2023-09-08T01:44:09;9.02;;;5.97;;
48122;SDS011;33907;47.426;18.906;2023-09-08T01:46:39;8.02;;;5.93;;
48122;SDS011;33907;47.426;18.906;2023-09-08T01:49:08;11.02;;;5.40;;
48122;SDS011;33907;47.426;18.906;2023-09-08T01:51:36;10.25;;;5.70;;
48122;SDS011;33907;47.426;18.906;2023-09-08T01:54:03;8.82;;;5.28;;
48122;SDS011;33907;47.426;18.906;2023-09-08T01:56:31;9.80;;;5.80;;
48122;SDS011;33907;47.426;18.906;2023-09-08T01:58:59;10.23;;;5.82;;
48122;SDS011;33907;47.426;18.906;2023-09-08T02:01:27;8.75;;;5.05;;
48122;SDS011;33907;47.426;18.906;2023-09-08T02:03:54;8.57;;;5.55;;
48122;SDS011;33907;47.426;18.906;2023-09-08T02:06:22;10.73;;;5.47;;
48122;SDS011;33907;47.426;18.906;2023-09-08T02:08:49;7.82;;;4.97;;
48122;SDS011;33907;47.426;18.906;2023-09-08T02:11:17;8.73;;;5.80;;
48122;SDS011;33907;47.426;18.906;2023-09-08T02:13:45;8.27;;;5.47;;
48122;SDS011;33907;47.426;18.906;2023-09-08T02:16:14;7.40;;;4.97;;
48122;SDS011;33907;47.426;18.906;2023-09-08T02:18:43;9.10;;;5.25;;
48122;SDS011;33907;47.426;18.906;2023-09-08T02:21:11;9.75;;;5.50;;
48122;SDS011;33907;47.426;18.906;2023-09-08T02:23:39;9.55;;;5.65;;
48122;SDS011;33907;47.426;18.906;2023-09-08T02:26:06;10.18;;;5.55;;
48122;SDS011;33907;47.426;18.906;2023-09-08T02:28:34;8.90;;;5.40;;
48122;SDS011;33907;47.426;18.906;2023-09-08T02:31:02;8.60;;;5.72;;
48122;SDS011;33907;47.426;18.906;2023-09-08T02:33:30;9.90;;;5.80;;
48122;SDS011;33907;47.426;18.906;2023-09-08T02:36:04;8.32;;;6.05;;
48122;SDS011;33907;47.426;18.906;2023-09-08T02:38:33;11.18;;;5.90;;
48122;SDS011;33907;47.426;18.906;2023-09-08T02:41:01;9.95;;;6.15;;
48122;SDS011;33907;47.426;18.906;2023-09-08T02:43:29;11.02;;;6.05;;
48122;SDS011;33907;47.426;18.906;2023-09-08T02:45:57;9.43;;;5.82;;
48122;SDS011;33907;47.426;18.906;2023-09-08T02:48:25;8.02;;;5.43;;
48122;SDS011;33907;47.426;18.906;2023-09-08T02:50:52;10.10;;;6.62;;
48122;SDS011;33907;47.426;18.906;2023-09-08T02:53:21;10.27;;;5.37;;
48122;SDS011;33907;47.426;18.906;2023-09-08T02:55:49;10.18;;;5.90;;
48122;SDS011;33907;47.426;18.906;2023-09-08T02:58:16;8.50;;;5.97;;
48122;SDS011;33907;47.426;18.906;2023-09-08T03:00:45;8.23;;;5.32;;
48122;SDS011;33907;47.426;18.906;2023-09-08T03:03:14;9.13;;;5.57;;
48122;SDS011;33907;47.426;18.906;2023-09-08T03:05:42;10.68;;;5.80;;
48122;SDS011;33907;47.426;18.906;2023-09-08T03:08:10;13.68;;;6.03;;
48122;SDS011;33907;47.426;18.906;2023-09-08T03:10:37;9.82;;;6.47;;
48122;SDS011;33907;47.426;18.906;2023-09-08T03:13:05;8.65;;;5.90;;
48122;SDS011;33907;47.426;18.906;2023-09-08T03:15:34;9.73;;;5.70;;
48122;SDS011;33907;47.426;18.906;2023-09-08T03:18:02;8.95;;;6.05;;
48122;SDS011;33907;47.426;18.906;2023-09-08T03:20:33;8.00;;;5.68;;
48122;SDS011;33907;47.426;18.906;2023-09-08T03:23:01;8.50;;;5.30;;
48122;SDS011;33907;47.426;18.906;2023-09-08T03:25:29;9.60;;;6.20;;
48122;SDS011;33907;47.426;18.906;2023-09-08T03:27:56;10.70;;;6.37;;
48122;SDS011;33907;47.426;18.906;2023-09-08T03:30:24;10.07;;;6.78;;
48122;SDS011;33907;47.426;18.906;2023-09-08T03:32:52;9.85;;;6.40;;
48122;SDS011;33907;47.426;18.906;2023-09-08T03:35:20;9.48;;;6.45;;
48122;SDS011;33907;47.426;18.906;2023-09-08T03:37:47;11.00;;;6.75;;
48122;SDS011;33907;47.426;18.906;2023-09-08T03:40:15;10.10;;;6.68;;
48122;SDS011;33907;47.426;18.906;2023-09-08T03:42:43;12.60;;;6.53;;
48122;SDS011;33907;47.426;18.906;2023-09-08T03:45:10;11.18;;;6.47;;
48122;SDS011;33907;47.426;18.906;2023-09-08T03:47:38;11.10;;;6.97;;
48122;SDS011;33907;47.426;18.906;2023-09-08T03:50:06;10.20;;;5.87;;
48122;SDS011;33907;47.426;18.906;2023-09-08T03:52:34;8.95;;;6.22;;
48122;SDS011;33907;47.426;18.906;2023-09-08T03:55:01;8.90;;;6.40;;
48122;SDS011;33907;47.426;18.906;2023-09-08T03:57:30;8.75;;;6.45;;
48122;SDS011;33907;47.426;18.906;2023-09-08T03:59:58;9.32;;;6.28;;
48122;SDS011;33907;47.426;18.906;2023-09-08T04:02:26;10.43;;;6.37;;
48122;SDS011;33907;47.426;18.906;2023-09-08T04:04:54;11.95;;;6.22;;
48122;SDS011;33907;47.426;18.906;2023-09-08T04:07:21;10.55;;;6.50;;
48122;SDS011;33907;47.426;18.906;2023-09-08T04:09:49;11.12;;;6.62;;
48122;SDS011;33907;47.426;18.906;2023-09-08T04:12:17;13.00;;;7.25;;
48122;SDS011;33907;47.426;18.906;2023-09-08T04:14:44;9.75;;;6.87;;
48122;SDS011;33907;47.426;18.906;2023-09-08T04:17:12;9.02;;;7.03;;
48122;SDS011;33907;47.426;18.906;2023-09-08T04:19:39;12.80;;;7.62;;
48122;SDS011;33907;47.426;18.906;2023-09-08T04:22:07;9.15;;;7.18;;
48122;SDS011;33907;47.426;18.906;2023-09-08T04:24:35;11.35;;;7.45;;
48122;SDS011;33907;47.426;18.906;2023-09-08T04:27:04;11.27;;;7.82;;
48122;SDS011;33907;47.426;18.906;2023-09-08T04:29:32;11.35;;;7.22;;
48122;SDS011;33907;47.426;18.906;2023-09-08T04:31:59;10.52;;;6.82;;
48122;SDS011;33907;47.426;18.906;2023-09-08T04:34:28;8.80;;;6.68;;
48122;SDS011;33907;47.426;18.906;2023-09-08T04:36:55;12.60;;;6.62;;
48122;SDS011;33907;47.426;18.906;2023-09-08T04:39:23;14.40;;;7.32;;
48122;SDS011;33907;47.426;18.906;2023-09-08T04:41:51;11.30;;;8.00;;
48122;SDS011;33907;47.426;18.906;2023-09-08T04:44:20;11.35;;;7.95;;
48122;SDS011;33907;47.426;18.906;2023-09-08T04:46:48;13.52;;;8.80;;
48122;SDS011;33907;47.426;18.906;2023-09-08T04:49:16;13.93;;;7.43;;
48122;SDS011;33907;47.426;18.906;2023-09-08T04:51:44;11.75;;;7.22;;
48122;SDS011;33907;47.426;18.906;2023-09-08T04:54:13;14.40;;;9.05;;
48122;SDS011;33907;47.426;18.906;2023-09-08T04:56:41;13.07;;;7.78;;
48122;SDS011;33907;47.426;18.906;2023-09-08T04:59:09;11.38;;;6.95;;
48122;SDS011;33907;47.426;18.906;2023-09-08T05:01:37;13.52;;;7.10;;
48122;SDS011;33907;47.426;18.906;2023-09-08T05:04:05;9.68;;;6.97;;
48122;SDS011;33907;47.426;18.906;2023-09-08T05:06:33;11.23;;;6.95;;
48122;SDS011;33907;47.426;18.906;2023-09-08T05:09:01;9.52;;;6.65;;
48122;SDS011;33907;47.426;18.906;2023-09-08T05:11:29;10.82;;;6.45;;
48122;SDS011;33907;47.426;18.906;2023-09-08T05:13:56;10.88;;;6.10;;
48122;SDS011;33907;47.426;18.906;2023-09-08T05:16:25;12.18;;;7.07;;
48122;SDS011;33907;47.426;18.906;2023-09-08T05:19:04;11.60;;;7.07;;
48122;SDS011;33907;47.426;18.906;2023-09-08T05:21:33;10.02;;;6.68;;
48122;SDS011;33907;47.426;18.906;2023-09-08T05:24:03;15.77;;;6.97;;
48122;SDS011;33907;47.426;18.906;2023-09-08T05:26:31;9.50;;;6.35;;
48122;SDS011;33907;47.426;18.906;2023-09-08T05:28:58;14.95;;;6.75;;
48122;SDS011;33907;47.426;18.906;2023-09-08T05:31:26;12.07;;;6.60;;
48122;SDS011;33907;47.426;18.906;2023-09-08T05:33:54;11.65;;;7.12;;
48122;SDS011;33907;47.426;18.906;2023-09-08T05:36:22;10.07;;;6.22;;
48122;SDS011;33907;47.426;18.906;2023-09-08T05:38:51;10.45;;;6.35;;
48122;SDS011;33907;47.426;18.906;2023-09-08T05:41:19;11.27;;;6.53;;
48122;SDS011;33907;47.426;18.906;2023-09-08T05:43:46;13.43;;;6.57;;
48122;SDS011;33907;47.426;18.906;2023-09-08T05:46:14;9.48;;;6.25;;
48122;SDS011;33907;47.426;18.906;2023-09-08T05:48:42;9.25;;;6.43;;
48122;SDS011;33907;47.426;18.906;2023-09-08T05:51:09;9.45;;;6.60;;
48122;SDS011;33907;47.426;18.906;2023-09-08T05:53:37;9.90;;;6.53;;
48122;SDS011;33907;47.426;18.906;2023-09-08T05:56:07;10.65;;;6.43;;
48122;SDS011;33907;47.426;18.906;2023-09-08T05:58:36;10.05;;;6.43;;
48122;SDS011;33907;47.426;18.906;2023-09-08T06:01:04;11.85;;;6.95;;
48122;SDS011;33907;47.426;18.906;2023-09-08T06:03:33;13.93;;;7.28;;
48122;SDS011;33907;47.426;18.906;2023-09-08T06:06:01;11.70;;;6.60;;
48122;SDS011;33907;47.426;18.906;2023-09-08T06:08:28;12.60;;;6.70;;
48122;SDS011;33907;47.426;18.906;2023-09-08T06:10:56;10.57;;;6.53;;
48122;SDS011;33907;47.426;18.906;2023-09-08T06:13:24;11.15;;;6.60;;
48122;SDS011;33907;47.426;18.906;2023-09-08T06:15:52;10.18;;;6.53;;
48122;SDS011;33907;47.426;18.906;2023-09-08T06:18:20;12.00;;;6.55;;
48122;SDS011;33907;47.426;18.906;2023-09-08T06:20:48;9.98;;;6.35;;
48122;SDS011;33907;47.426;18.906;2023-09-08T06:23:19;9.30;;;6.80;;
48122;SDS011;33907;47.426;18.906;2023-09-08T06:25:48;10.88;;;6.68;;
48122;SDS011;33907;47.426;18.906;2023-09-08T06:28:16;11.70;;;6.95;;
48122;SDS011;33907;47.426;18.906;2023-09-08T06:30:44;10.90;;;6.53;;
48122;SDS011;33907;47.426;18.906;2023-09-08T06:33:11;12.25;;;6.37;;
48122;SDS011;33907;47.426;18.906;2023-09-08T06:35:39;12.48;;;5.90;;
48122;SDS011;33907;47.426;18.906;2023-09-08T06:38:07;10.57;;;6.45;;
48122;SDS011;33907;47.426;18.906;2023-09-08T06:40:35;12.23;;;6.37;;
48122;SDS011;33907;47.426;18.906;2023-09-08T06:43:03;11.05;;;6.35;;
48122;SDS011;33907;47.426;18.906;2023-09-08T06:45:39;9.82;;;6.25;;
48122;SDS011;33907;47.426;18.906;2023-09-08T06:48:07;9.60;;;6.00;;
48122;SDS011;33907;47.426;18.906;2023-09-08T06:50:35;11.27;;;6.28;;
48122;SDS011;33907;47.426;18.906;2023-09-08T06:53:02;10.73;;;6.65;;
48122;SDS011;33907;47.426;18.906;2023-09-08T06:55:31;10.65;;;6.35;;
48122;SDS011;33907;47.426;18.906;2023-09-08T06:57:58;11.30;;;6.90;;
48122;SDS011;33907;47.426;18.906;2023-09-08T07:00:26;11.07;;;6.28;;
48122;SDS011;33907;47.426;18.906;2023-09-08T07:02:55;11.73;;;6.28;;
48122;SDS011;33907;47.426;18.906;2023-09-08T07:05:23;10.88;;;6.28;;
48122;SDS011;33907;47.426;18.906;2023-09-08T07:07:51;10.45;;;6.50;;
48122;SDS011;33907;47.426;18.906;2023-09-08T07:10:19;10.05;;;6.18;;
48122;SDS011;33907;47.426;18.906;2023-09-08T07:12:47;8.85;;;5.97;;
48122;SDS011;33907;47.426;18.906;2023-09-08T07:15:15;12.40;;;6.53;;
48122;SDS011;33907;47.426;18.906;2023-09-08T07:17:44;10.75;;;6.57;;
48122;SDS011;33907;47.426;18.906;2023-09-08T07:20:11;11.68;;;6.22;;
48122;SDS011;33907;47.426;18.906;2023-09-08T07:22:39;11.50;;;6.20;;
48122;SDS011;33907;47.426;18.906;2023-09-08T07:25:08;10.48;;;5.75;;
48122;SDS011;33907;47.426;18.906;2023-09-08T07:27:37;14.15;;;5.97;;
48122;SDS011;33907;47.426;18.906;2023-09-08T07:30:05;13.80;;;6.12;;
48122;SDS011;33907;47.426;18.906;2023-09-08T07:32:34;10.45;;;6.15;;
48122;SDS011;33907;47.426;18.906;2023-09-08T07:35:01;10.52;;;6.25;;
48122;SDS011;33907;47.426;18.906;2023-09-08T07:37:29;9.02;;;5.55;;
48122;SDS011;33907;47.426;18.906;2023-09-08T07:39:57;9.23;;;6.25;;
48122;SDS011;33907;47.426;18.906;2023-09-08T07:42:25;10.23;;;6.07;;
48122;SDS011;33907;47.426;18.906;2023-09-08T07:44:53;13.27;;;6.70;;
48122;SDS011;33907;47.426;18.906;2023-09-08T07:47:21;10.23;;;5.80;;
48122;SDS011;33907;47.426;18.906;2023-09-08T07:49:48;12.85;;;6.65;;
48122;SDS011;33907;47.426;18.906;2023-09-08T07:52:16;10.95;;;6.15;;
48122;SDS011;33907;47.426;18.906;2023-09-08T07:54:43;10.43;;;6.15;;
48122;SDS011;33907;47.426;18.906;2023-09-08T07:57:11;10.70;;;6.37;;
48122;SDS011;33907;47.426;18.906;2023-09-08T07:59:38;10.82;;;5.87;;
48122;SDS011;33907;47.426;18.906;2023-09-08T08:02:06;10.48;;;6.15;;
48122;SDS011;33907;47.426;18.906;2023-09-08T08:04:34;12.27;;;6.57;;
48122;SDS011;33907;47.426;18.906;2023-09-08T08:07:02;11.40;;;6.07;;
48122;SDS011;33907;47.426;18.906;2023-09-08T08:20:37;10.10;;;6.25;;
48122;SDS011;33907;47.426;18.906;2023-09-08T08:23:07;15.00;;;6.47;;
48122;SDS011;33907;47.426;18.906;2023-09-08T08:25:35;12.05;;;6.53;;
48122;SDS011;33907;47.426;18.906;2023-09-08T08:28:03;12.80;;;6.87;;
48122;SDS011;33907;47.426;18.906;2023-09-08T08:30:30;10.48;;;6.20;;
48122;SDS011;33907;47.426;18.906;2023-09-08T08:32:59;11.50;;;6.40;;
48122;SDS011;33907;47.426;18.906;2023-09-08T08:35:27;10.50;;;6.55;;
48122;SDS011;33907;47.426;18.906;2023-09-08T08:37:57;15.38;;;6.72;;
48122;SDS011;33907;47.426;18.906;2023-09-08T08:40:25;9.82;;;6.07;;
48122;SDS011;33907;47.426;18.906;2023-09-08T08:42:55;11.52;;;6.47;;
48122;SDS011;33907;47.426;18.906;2023-09-08T08:45:24;15.65;;;6.35;;
48122;SDS011;33907;47.426;18.906;2023-09-08T08:47:53;11.80;;;5.87;;
48122;SDS011;33907;47.426;18.906;2023-09-08T08:50:21;11.23;;;5.60;;
48122;SDS011;33907;47.426;18.906;2023-09-08T08:52:48;11.60;;;5.82;;
48122;SDS011;33907;47.426;18.906;2023-09-08T08:55:16;11.55;;;5.85;;
48122;SDS011;33907;47.426;18.906;2023-09-08T08:57:43;14.10;;;6.25;;
48122;SDS011;33907;47.426;18.906;2023-09-08T09:00:11;12.37;;;6.30;;
48122;SDS011;33907;47.426;18.906;2023-09-08T09:02:40;9.63;;;6.12;;
48122;SDS011;33907;47.426;18.906;2023-09-08T09:05:12;10.07;;;6.25;;
48122;SDS011;33907;47.426;18.906;2023-09-08T09:07:43;12.32;;;6.22;;
48122;SDS011;33907;47.426;18.906;2023-09-08T09:10:11;10.18;;;5.85;;
48122;SDS011;33907;47.426;18.906;2023-09-08T09:12:39;9.32;;;5.60;;
48122;SDS011;33907;47.426;18.906;2023-09-08T09:15:07;9.60;;;6.00;;
48122;SDS011;33907;47.426;18.906;2023-09-08T09:17:39;9.80;;;5.90;;
48122;SDS011;33907;47.426;18.906;2023-09-08T09:20:13;12.50;;;5.50;;
48122;SDS011;33907;47.426;18.906;2023-09-08T09:22:45;10.63;;;5.62;;
48122;SDS011;33907;47.426;18.906;2023-09-08T09:25:22;12.95;;;5.70;;
48122;SDS011;33907;47.426;18.906;2023-09-08T09:27:53;8.30;;;5.25;;
48122;SDS011;33907;47.426;18.906;2023-09-08T09:30:22;10.20;;;5.53;;
48122;SDS011;33907;47.426;18.906;2023-09-08T09:32:59;10.48;;;5.43;;
48122;SDS011;33907;47.426;18.906;2023-09-08T09:38:08;10.63;;;5.07;;
48122;SDS011;33907;47.426;18.906;2023-09-08T09:40:36;8.70;;;5.30;;
48122;SDS011;33907;47.426;18.906;2023-09-08T09:43:05;9.63;;;5.53;;
48122;SDS011;33907;47.426;18.906;2023-09-08T09:45:33;10.80;;;5.87;;
48122;SDS011;33907;47.426;18.906;2023-09-08T09:48:02;8.40;;;5.05;;
48122;SDS011;33907;47.426;18.906;2023-09-08T09:50:32;10.50;;;5.82;;
48122;SDS011;33907;47.426;18.906;2023-09-08T09:53:08;10.98;;;5.30;;
48122;SDS011;33907;47.426;18.906;2023-09-08T09:55:40;13.55;;;5.45;;
48122;SDS011;33907;47.426;18.906;2023-09-08T09:58:10;10.07;;;5.75;;
48122;SDS011;33907;47.426;18.906;2023-09-08T10:00:38;10.93;;;5.12;;
48122;SDS011;33907;47.426;18.906;2023-09-08T10:03:15;12.45;;;6.00;;
48122;SDS011;33907;47.426;18.906;2023-09-08T10:05:44;8.35;;;5.37;;
48122;SDS011;33907;47.426;18.906;2023-09-08T10:08:14;12.82;;;5.45;;
48122;SDS011;33907;47.426;18.906;2023-09-08T10:10:42;8.70;;;4.82;;
48122;SDS011;33907;47.426;18.906;2023-09-08T10:13:13;11.60;;;5.37;;
48122;SDS011;33907;47.426;18.906;2023-09-08T10:15:41;11.68;;;5.28;;
48122;SDS011;33907;47.426;18.906;2023-09-08T10:18:09;8.85;;;5.18;;
48122;SDS011;33907;47.426;18.906;2023-09-08T10:20:38;12.93;;;5.80;;
48122;SDS011;33907;47.426;18.906;2023-09-08T10:23:19;12.10;;;5.43;;
48122;SDS011;33907;47.426;18.906;2023-09-08T10:25:52;13.13;;;5.95;;
48122;SDS011;33907;47.426;18.906;2023-09-08T10:28:23;8.40;;;5.28;;
48122;SDS011;33907;47.426;18.906;2023-09-08T10:30:52;9.85;;;5.32;;
48122;SDS011;33907;47.426;18.906;2023-09-08T10:33:20;12.45;;;6.40;;
48122;SDS011;33907;47.426;18.906;2023-09-08T10:35:51;8.98;;;5.95;;
48122;SDS011;33907;47.426;18.906;2023-09-08T10:41:25;11.82;;;6.10;;
48122;SDS011;33907;47.426;18.906;2023-09-08T10:43:45;11.68;;;5.47;;
48122;SDS011;33907;47.426;18.906;2023-09-08T10:46:23;9.70;;;5.97;;
48122;SDS011;33907;47.426;18.906;2023-09-08T10:48:54;10.82;;;5.87;;
48122;SDS011;33907;47.426;18.906;2023-09-08T10:51:22;8.73;;;5.37;;
48122;SDS011;33907;47.426;18.906;2023-09-08T10:53:52;11.38;;;5.97;;
48122;SDS011;33907;47.426;18.906;2023-09-08T10:56:19;12.68;;;6.07;;
48122;SDS011;33907;47.426;18.906;2023-09-08T10:58:51;10.77;;;6.12;;
48122;SDS011;33907;47.426;18.906;2023-09-08T11:01:20;11.52;;;5.72;;
48122;SDS011;33907;47.426;18.906;2023-09-08T11:03:54;10.88;;;5.72;;
48122;SDS011;33907;47.426;18.906;2023-09-08T11:06:23;10.20;;;5.40;;
48122;SDS011;33907;47.426;18.906;2023-09-08T11:08:50;7.97;;;5.03;;
48122;SDS011;33907;47.426;18.906;2023-09-08T11:11:24;10.77;;;6.37;;
48122;SDS011;33907;47.426;18.906;2023-09-08T11:13:52;9.90;;;5.53;;
48122;SDS011;33907;47.426;18.906;2023-09-08T11:16:19;7.97;;;6.00;;
48122;SDS011;33907;47.426;18.906;2023-09-08T11:18:52;8.50;;;5.55;;
48122;SDS011;33907;47.426;18.906;2023-09-08T11:21:20;9.95;;;4.82;;
48122;SDS011;33907;47.426;18.906;2023-09-08T11:26:34;10.57;;;5.15;;
48122;SDS011;33907;47.426;18.906;2023-09-08T11:29:02;6.93;;;4.32;;
48122;SDS011;33907;47.426;18.906;2023-09-08T11:31:29;8.93;;;5.20;;
48122;SDS011;33907;47.426;18.906;2023-09-08T11:33:57;8.23;;;4.60;;
48122;SDS011;33907;47.426;18.906;2023-09-08T11:36:26;9.02;;;4.82;;
48122;SDS011;33907;47.426;18.906;2023-09-08T11:38:55;9.95;;;4.53;;
48122;SDS011;33907;47.426;18.906;2023-09-08T11:41:23;7.57;;;4.37;;
48122;SDS011;33907;47.426;18.906;2023-09-08T11:43:51;8.30;;;5.00;;
48122;SDS011;33907;47.426;18.906;2023-09-08T11:46:19;8.43;;;4.40;;
48122;SDS011;33907;47.426;18.906;2023-09-08T11:48:47;7.62;;;4.65;;
48122;SDS011;33907;47.426;18.906;2023-09-08T11:51:15;9.45;;;4.95;;
48122;SDS011;33907;47.426;18.906;2023-09-08T11:53:42;10.85;;;5.03;;
48122;SDS011;33907;47.426;18.906;2023-09-08T11:56:10;8.90;;;4.50;;
48122;SDS011;33907;47.426;18.906;2023-09-08T11:58:38;7.85;;;4.43;;
48122;SDS011;33907;47.426;18.906;2023-09-08T12:01:06;10.60;;;4.93;;
48122;SDS011;33907;47.426;18.906;2023-09-08T12:03:34;7.90;;;4.55;;
48122;SDS011;33907;47.426;18.906;2023-09-08T12:06:02;10.68;;;4.72;;
48122;SDS011;33907;47.426;18.906;2023-09-08T12:08:30;8.00;;;4.62;;
48122;SDS011;33907;47.426;18.906;2023-09-08T12:10:58;7.72;;;4.53;;
48122;SDS011;33907;47.426;18.906;2023-09-08T12:13:25;9.00;;;4.70;;
48122;SDS011;33907;47.426;18.906;2023-09-08T12:15:53;8.23;;;4.40;;
48122;SDS011;33907;47.426;18.906;2023-09-08T12:18:36;9.43;;;4.37;;
48122;SDS011;33907;47.426;18.906;2023-09-08T12:21:05;10.85;;;4.72;;
48122;SDS011;33907;47.426;18.906;2023-09-08T12:23:33;8.57;;;4.45;;
48122;SDS011;33907;47.426;18.906;2023-09-08T12:26:00;9.77;;;4.40;;
48122;SDS011;33907;47.426;18.906;2023-09-08T12:28:30;9.48;;;4.62;;
48122;SDS011;33907;47.426;18.906;2023-09-08T12:30:58;6.12;;;3.70;;
48122;SDS011;33907;47.426;18.906;2023-09-08T12:33:26;8.85;;;4.40;;
48122;SDS011;33907;47.426;18.906;2023-09-08T12:35:53;9.02;;;4.28;;
48122;SDS011;33907;47.426;18.906;2023-09-08T12:38:21;8.25;;;3.92;;
48122;SDS011;33907;47.426;18.906;2023-09-08T12:40:50;7.90;;;4.40;;
48122;SDS011;33907;47.426;18.906;2023-09-08T12:43:17;8.23;;;3.97;;
48122;SDS011;33907;47.426;18.906;2023-09-08T12:45:55;9.65;;;4.47;;
48122;SDS011;33907;47.426;18.906;2023-09-08T12:48:23;6.70;;;3.85;;
48122;SDS011;33907;47.426;18.906;2023-09-08T12:50:51;8.82;;;4.30;;
48122;SDS011;33907;47.426;18.906;2023-09-08T12:53:19;7.93;;;4.00;;
48122;SDS011;33907;47.426;18.906;2023-09-08T12:55:47;8.23;;;4.00;;
48122;SDS011;33907;47.426;18.906;2023-09-08T12:58:15;8.23;;;4.35;;
48122;SDS011;33907;47.426;18.906;2023-09-08T13:00:44;6.97;;;4.30;;
48122;SDS011;33907;47.426;18.906;2023-09-08T13:03:12;8.43;;;4.10;;
48122;SDS011;33907;47.426;18.906;2023-09-08T13:05:39;11.18;;;4.03;;
48122;SDS011;33907;47.426;18.906;2023-09-08T13:08:08;7.97;;;4.32;;
48122;SDS011;33907;47.426;18.906;2023-09-08T13:10:38;7.32;;;3.87;;
48122;SDS011;33907;47.426;18.906;2023-09-08T13:13:06;9.50;;;4.55;;
48122;SDS011;33907;47.426;18.906;2023-09-08T13:15:34;6.43;;;4.03;;
48122;SDS011;33907;47.426;18.906;2023-09-08T13:18:02;6.30;;;3.85;;
48122;SDS011;33907;47.426;18.906;2023-09-08T13:20:30;8.73;;;4.18;;
48122;SDS011;33907;47.426;18.906;2023-09-08T13:22:59;7.68;;;4.37;;
48122;SDS011;33907;47.426;18.906;2023-09-08T13:25:27;7.80;;;4.00;;
48122;SDS011;33907;47.426;18.906;2023-09-08T13:27:55;7.30;;;3.95;;
48122;SDS011;33907;47.426;18.906;2023-09-08T13:30:23;6.65;;;4.32;;
48122;SDS011;33907;47.426;18.906;2023-09-08T13:32:53;10.52;;;4.45;;
48122;SDS011;33907;47.426;18.906;2023-09-08T13:35:23;10.13;;;4.30;;
48122;SDS011;33907;47.426;18.906;2023-09-08T13:37:51;9.57;;;4.60;;
48122;SDS011;33907;47.426;18.906;2023-09-08T13:40:19;6.72;;;3.97;;
48122;SDS011;33907;47.426;18.906;2023-09-08T13:42:48;9.93;;;4.32;;
48122;SDS011;33907;47.426;18.906;2023-09-08T13:45:16;10.43;;;4.18;;
48122;SDS011;33907;47.426;18.906;2023-09-08T13:47:44;9.63;;;3.90;;
48122;SDS011;33907;47.426;18.906;2023-09-08T13:50:12;8.32;;;4.57;;
48122;SDS011;33907;47.426;18.906;2023-09-08T13:52:43;6.85;;;3.95;;
48122;SDS011;33907;47.426;18.906;2023-09-08T13:55:14;7.60;;;4.72;;
48122;SDS011;33907;47.426;18.906;2023-09-08T13:57:45;9.98;;;4.57;;
48122;SDS011;33907;47.426;18.906;2023-09-08T14:00:17;10.13;;;3.72;;
48122;SDS011;33907;47.426;18.906;2023-09-08T14:02:51;7.47;;;4.03;;
48122;SDS011;33907;47.426;18.906;2023-09-08T14:05:23;8.95;;;4.20;;
48122;SDS011;33907;47.426;18.906;2023-09-08T14:07:56;8.25;;;3.95;;
48122;SDS011;33907;47.426;18.906;2023-09-08T14:10:29;7.47;;;4.10;;
48122;SDS011;33907;47.426;18.906;2023-09-08T14:13:08;6.53;;;3.62;;
48122;SDS011;33907;47.426;18.906;2023-09-08T14:15:36;6.97;;;3.50;;
48122;SDS011;33907;47.426;18.906;2023-09-08T14:18:04;13.00;;;4.43;;
48122;SDS011;33907;47.426;18.906;2023-09-08T14:20:33;9.13;;;4.32;;
48122;SDS011;33907;47.426;18.906;2023-09-08T14:23:01;7.78;;;3.90;;
48122;SDS011;33907;47.426;18.906;2023-09-08T14:25:29;8.30;;;3.78;;
48122;SDS011;33907;47.426;18.906;2023-09-08T14:27:58;9.30;;;4.43;;
48122;SDS011;33907;47.426;18.906;2023-09-08T14:30:28;7.78;;;3.78;;
48122;SDS011;33907;47.426;18.906;2023-09-08T14:32:58;9.48;;;4.70;;
48122;SDS011;33907;47.426;18.906;2023-09-08T14:35:26;12.30;;;4.43;;
48122;SDS011;33907;47.426;18.906;2023-09-08T14:37:53;9.68;;;4.40;;
48122;SDS011;33907;47.426;18.906;2023-09-08T14:40:22;8.32;;;4.62;;
48122;SDS011;33907;47.426;18.906;2023-09-08T14:42:50;9.73;;;4.65;;
48122;SDS011;33907;47.426;18.906;2023-09-08T14:45:21;9.27;;;4.28;;
48122;SDS011;33907;47.426;18.906;2023-09-08T14:47:49;6.43;;;3.90;;
48122;SDS011;33907;47.426;18.906;2023-09-08T14:50:17;11.02;;;4.15;;
48122;SDS011;33907;47.426;18.906;2023-09-08T14:52:45;8.60;;;4.20;;
48122;SDS011;33907;47.426;18.906;2023-09-08T14:55:13;7.75;;;4.28;;
48122;SDS011;33907;47.426;18.906;2023-09-08T14:57:41;6.97;;;4.00;;
48122;SDS011;33907;47.426;18.906;2023-09-08T15:00:10;8.80;;;4.07;;
48122;SDS011;33907;47.426;18.906;2023-09-08T15:02:39;6.57;;;4.03;;